EKSP/SKS METAR and TAF weather

Enter ICAO airport designator
Station Type Date Time Source
EKSP METAR 2019/08/19 22:20 UTC NOAA

EKSP 192220Z 20006KT 9999 FEW020TCU SCT040 13/13 Q1015


Station Type Date Time Source
EKSP Decoded METAR 2019/08/19 22:20 UTC NOAA

Skrydstrup, Denmark (EKSP) 55-14N 009-16E 47M
Aug 19, 2019 - 06:20 PM EDT / 2019.08.19 2220 UTC
Wind: from the SSW (200 degrees) at 7 MPH (6 KT):0
Visibility: greater than 7 mile(s):0
Sky conditions: partly cloudy
Weather: Towering cumulus clouds observed
Temperature: 55 F (13 C)
Dew Point: 55 F (13 C)
Relative Humidity: 100%
Pressure (altimeter): 29.97 in. Hg (1015 hPa)
ob: EKSP 192220Z 20006KT 9999 FEW020TCU SCT040 13/13 Q1015
cycle: 22

Station Type Date Time Source
EKSP TAF 2019/08/19 21:30 UTC NOAA

TAF EKSP 192021Z 1921/2021 23012KT 9999 SCT020
TEMPO 1921/1924 24015G25KT 4000 SHRA SCT012 BKN020CB
TEMPO 2000/2006 7000 -SHRA SCT020CB
TEMPO 2006/2015 23012G22KT 4000 SHRA SCT012 BKN020CB PROB40
TEMPO 2006/2015 TSRA

Example: see airport list